Terminal Aerodrome Forecast
Issued by NWS

Home | Current Version | Previous Version | Text Only | Print | Product List | Glossary Off
Versions: 1 2 3 4 5 6 7 8 9 10 11 12 13 14 15 16 17

000
FTUS43 KGRB 291400 AAA
TAFMTW
TAF AMD
KMTW 291422Z 2914/3012 20020G29KT P6SM SCT090 OVC250
     FM291600 19023G35KT 5SM -RAPL SCT020 OVC040
      TEMPO 2916/2918 3SM -RASN SCT007 OVC035
     FM291800 20022G34KT P6SM -SHRA BKN030
     FM292200 23017G25KT P6SM BKN040
     FM300200 28014KT P6SM SCT050=

USA.gov is the U.S. government's official web portal to all federal, state and local government web resources and services.